Time;durP1;ratioP1;P1;durP2;ratioP2;P2;SDS_P1;SDS_P2;PMS_P1;PMS_P2;Temp;Humidity;BMP_temperature;BMP_pressure;BME280_temperature;BME280_humidity;BME280_pressure;Samples;Min_cycle;Max_cycle;Signal;HPM_P1;HPM_P2
2022/06/19 00:01:50;;;;;;;1.05;0.98;;;;;;;18.09;70.58;99911.53;5113900;28;20126;-66
2022/06/19 00:04:28;;;;;;;0.60;0.60;;;;;;;18.03;70.48;99907.38;5113956;28;20201;-66
2022/06/19 00:06:57;;;;;;;0.80;0.80;;;;;;;18.04;70.64;99915.97;5113955;28;20040;-66
2022/06/19 00:09:30;;;;;;;1.98;0.75;;;;;;;18.06;70.73;99907.28;5113899;28;20051;-66
2022/06/19 00:11:59;;;;;;;1.20;1.00;;;;;;;18.04;70.55;99913.38;5113984;28;20400;-66
2022/06/19 00:14:33;;;;;;;1.53;1.33;;;;;;;18.02;70.29;99912.56;5113865;28;20085;-67
2022/06/19 00:17:09;;;;;;;1.05;0.85;;;;;;;17.99;70.06;99904.91;5113829;28;20830;-66
2022/06/19 00:19:41;;;;;;;0.63;0.63;;;;;;;18.00;69.90;99909.16;5114185;28;20126;-67
2022/06/19 00:22:11;;;;;;;0.60;0.60;;;;;;;17.94;70.06;99906.78;5113840;28;20114;-67
2022/06/19 00:24:40;;;;;;;0.93;0.85;;;;;;;17.74;70.15;99878.03;5113781;28;20074;-66
2022/06/19 00:27:09;;;;;;;0.80;0.80;;;;;;;17.92;70.17;99903.38;5113114;28;20048;-67
2022/06/19 00:29:38;;;;;;;1.00;1.00;;;;;;;17.91;70.28;99906.84;5113748;28;20559;-67
2022/06/19 00:32:18;;;;;;;1.00;0.90;;;;;;;17.85;70.22;99896.69;5114574;28;20069;-66
2022/06/19 00:34:55;;;;;;;;;;;;;;;17.84;69.95;99902.72;5118171;28;20051;-66
2022/06/19 00:37:27;;;;;;;0.50;0.50;;;;;;;17.79;70.17;99902.84;5117658;28;19962;-67
2022/06/19 00:40:09;;;;;;;0.73;0.73;;;;;;;17.80;70.24;99906.28;5117955;28;20443;-66
2022/06/19 00:42:41;;;;;;;0.65;0.65;;;;;;;17.75;70.48;99910.72;5117568;28;20043;-67
2022/06/19 00:45:29;;;;;;;0.40;0.40;;;;;;;17.72;70.56;99908.22;5117599;28;20039;-67
2022/06/19 00:48:06;;;;;;;0.68;0.68;;;;;;;17.73;70.14;99902.19;5117372;28;20856;-67
2022/06/19 00:50:36;;;;;;;0.80;0.80;;;;;;;17.61;70.03;99893.00;5117523;28;20048;-67
2022/06/19 00:53:12;;;;;;;0.88;0.85;;;;;;;17.72;69.89;99906.50;5117703;28;20072;-67
2022/06/19 00:55:44;;;;;;;1.70;1.25;;;;;;;17.72;69.87;99900.47;5117336;28;20043;-67
2022/06/19 00:58:19;;;;;;;0.88;0.85;;;;;;;17.71;70.00;99896.19;5117305;28;20058;-66
2022/06/19 01:00:58;;;;;;;0.70;0.60;;;;;;;17.66;69.92;99895.47;5117592;27;20432;-67
2022/06/19 01:03:39;;;;;;;0.80;0.80;;;;;;;17.60;70.01;99891.31;5117160;28;20047;-66
2022/06/19 01:06:14;;;;;;;0.68;0.65;;;;;;;17.51;70.17;99890.66;5117125;28;20083;-67
2022/06/19 01:08:43;;;;;;;2.00;0.82;;;;;;;17.48;70.23;99899.34;5117027;28;20043;-66
2022/06/19 01:11:24;;;;;;;1.35;1.23;;;;;;;17.41;70.41;99887.47;5117379;28;20148;-67
2022/06/19 01:13:56;;;;;;;1.15;0.80;;;;;;;17.37;70.62;99884.09;5116906;28;20044;-67
2022/06/19 01:16:26;;;;;;;0.70;0.70;;;;;;;17.39;70.62;99882.38;5116980;28;20055;-67
2022/06/19 01:19:00;;;;;;;0.57;0.57;;;;;;;17.38;70.74;99875.50;5117154;28;20043;-68
2022/06/19 01:21:35;;;;;;;0.80;0.80;;;;;;;17.37;70.85;99878.94;5117183;28;20047;-66
2022/06/19 01:24:13;;;;;;;2.47;1.00;;;;;;;17.34;70.35;99871.31;5116623;28;20058;-66
2022/06/19 01:26:51;;;;;;;0.70;0.70;;;;;;;17.34;70.42;99868.72;5116611;28;20105;-67
2022/06/19 01:29:20;;;;;;;1.75;0.93;;;;;;;17.29;70.61;99874.88;5115527;28;20508;-66
2022/06/19 01:31:53;;;;;;;0.70;0.70;;;;;;;17.25;70.70;99874.09;5115393;28;20046;-66
2022/06/19 01:34:28;;;;;;;0.88;0.85;;;;;;;17.22;70.73;99869.03;5116566;28;20048;-66
2022/06/19 01:37:01;;;;;;;0.70;0.70;;;;;;;17.17;71.35;99868.28;5116585;28;20130;-66
2022/06/19 01:39:36;;;;;;;1.92;1.17;;;;;;;17.19;70.73;99875.97;5116473;28;20077;-66
2022/06/19 01:42:08;;;;;;;2.25;0.93;;;;;;;17.14;71.11;99876.09;5116451;27;20039;-66
2022/06/19 01:44:38;;;;;;;0.65;0.65;;;;;;;16.90;71.25;99840.56;5115329;28;20492;-66
2022/06/19 01:47:07;;;;;;;0.68;0.68;;;;;;;17.10;70.84;99865.91;5116307;28;20126;-66
2022/06/19 01:49:41;;;;;;;1.65;1.38;;;;;;;17.06;71.08;99862.53;5116278;28;20126;-66
2022/06/19 01:52:18;;;;;;;0.70;0.70;;;;;;;16.92;70.95;99869.75;5116320;28;20507;-66
2022/06/19 01:54:51;;;;;;;0.80;0.80;;;;;;;16.76;71.39;99868.41;5116551;28;20097;-66
2022/06/19 01:57:23;;;;;;;1.02;0.90;;;;;;;16.59;72.11;99868.78;5116506;28;20069;-66
2022/06/19 01:59:53;;;;;;;5.45;1.85;;;;;;;16.44;72.50;99855.34;5116553;28;20039;-66
2022/06/19 02:02:25;;;;;;;0.60;0.60;;;;;;;16.43;73.02;99859.69;5116014;28;20048;-66
2022/06/19 02:04:57;;;;;;;0.60;0.60;;;;;;;16.35;73.06;99856.41;5115945;28;20055;-66
2022/06/19 02:07:30;;;;;;;0.52;0.52;;;;;;;16.23;73.29;99851.50;5115938;28;20047;-66
2022/06/19 02:10:02;;;;;;;0.70;0.70;;;;;;;16.09;73.37;99849.22;5114999;28;20051;-66
2022/06/19 02:12:39;;;;;;;1.42;0.90;;;;;;;16.13;73.85;99844.00;5115898;28;20051;-66
2022/06/19 02:15:13;;;;;;;0.50;0.50;;;;;;;16.15;73.85;99842.25;5116053;28;20146;-66
2022/06/19 02:17:53;;;;;;;1.13;1.00;;;;;;;16.05;73.75;99819.25;5116076;28;20104;-66
2022/06/19 02:20:22;;;;;;;0.60;0.60;;;;;;;16.29;73.48;99835.91;5115719;28;20051;-66
2022/06/19 02:22:57;;;;;;;0.43;0.43;;;;;;;16.23;73.55;99845.50;5115633;28;20044;-66
2022/06/19 02:25:26;;;;;;;0.63;0.63;;;;;;;16.15;73.63;99848.22;5115830;28;20051;-66
2022/06/19 02:27:57;;;;;;;0.50;0.50;;;;;;;15.99;74.38;99842.56;5114156;28;20122;-66
2022/06/19 02:30:26;;;;;;;1.42;1.00;;;;;;;15.94;74.45;99839.22;5115531;28;20047;-66
2022/06/19 02:33:07;;;;;;;0.88;0.88;;;;;;;15.96;74.71;99842.63;5115415;28;20039;-66
2022/06/19 02:35:39;;;;;;;0.52;0.52;;;;;;;16.07;74.31;99840.69;5115671;28;20067;-66
2022/06/19 02:38:09;;;;;;;1.40;1.30;;;;;;;16.18;73.53;99831.88;5115923;28;20478;-66
2022/06/19 02:40:48;;;;;;;0.50;0.50;;;;;;;16.24;73.60;99832.63;5115593;28;20464;-66
2022/06/19 02:43:25;;;;;;;1.15;1.08;;;;;;;16.21;72.90;99811.22;5115600;28;20405;-66
2022/06/19 02:45:54;;;;;;;0.90;0.90;;;;;;;16.34;72.74;99830.69;5115241;28;20051;-66
2022/06/19 02:48:27;;;;;;;0.80;0.80;;;;;;;16.40;72.49;99838.28;5115037;28;20089;-66
2022/06/19 02:51:01;;;;;;;1.02;0.70;;;;;;;16.45;71.99;99836.44;5115400;28;20127;-66
2022/06/19 02:53:30;;;;;;;1.13;1.02;;;;;;;16.45;71.80;99829.56;5115084;28;20096;-66
2022/06/19 02:56:02;;;;;;;0.60;0.60;;;;;;;16.50;71.81;99832.03;5115190;28;20409;-66
2022/06/19 02:58:33;;;;;;;0.80;0.80;;;;;;;16.50;71.67;99832.91;5115006;28;20078;-67
2022/06/19 03:01:05;;;;;;;0.95;0.90;;;;;;;16.47;71.76;99834.69;5114963;28;20062;-66
2022/06/19 03:03:36;;;;;;;0.60;0.60;;;;;;;16.45;71.71;99846.75;5115190;28;20081;-67
2022/06/19 03:06:07;;;;;;;1.45;1.35;;;;;;;16.29;71.53;99828.19;5115099;28;20058;-66
2022/06/19 03:08:36;;;;;;;0.50;0.50;;;;;;;16.43;71.76;99849.38;5114664;28;20043;-66
2022/06/19 03:11:07;;;;;;;0.63;0.63;;;;;;;16.45;71.36;99846.75;5114634;28;20107;-67
2022/06/19 03:13:50;;;;;;;0.52;0.52;;;;;;;16.44;71.36;99850.19;5115221;28;20048;-66
2022/06/19 03:16:21;;;;;;;0.80;0.80;;;;;;;16.37;71.70;99833.19;5114922;28;20122;-66
2022/06/19 03:18:59;;;;;;;0.68;0.68;;;;;;;16.49;71.75;99845.78;5114610;28;20511;-66
2022/06/19 03:21:37;;;;;;;0.70;0.70;;;;;;;16.51;71.55;99841.44;5114535;28;20047;-66
2022/06/19 03:24:06;;;;;;;0.60;0.60;;;;;;;16.56;71.49;99839.66;5114475;28;20052;-66
2022/06/19 03:26:35;;;;;;;1.83;1.13;;;;;;;16.59;71.39;99844.75;5113428;28;20043;-67
2022/06/19 03:29:06;;;;;;;0.57;0.57;;;;;;;16.54;71.35;99844.00;5114381;28;20058;-66
2022/06/19 03:31:37;;;;;;;1.17;0.90;;;;;;;16.50;71.74;99840.63;5114324;28;20279;-66
2022/06/19 03:34:06;;;;;;;1.30;0.98;;;;;;;16.51;71.75;99836.28;5114950;28;20044;-66
2022/06/19 03:36:35;;;;;;;0.85;0.70;;;;;;;16.46;72.22;99838.16;5114171;28;20043;-66
2022/06/19 03:39:04;;;;;;;0.63;0.63;;;;;;;16.35;72.74;99825.50;5114339;28;20043;-66
2022/06/19 03:41:33;;;;;;;0.95;0.82;;;;;;;16.35;72.90;99832.38;5114541;28;20557;-66
2022/06/19 03:44:06;;;;;;;0.50;0.50;;;;;;;16.28;73.10;99835.97;5114221;28;20044;-66
2022/06/19 03:46:35;;;;;;;0.60;0.60;;;;;;;16.30;73.68;99831.63;5114476;28;20280;-66
2022/06/19 03:49:05;;;;;;;0.50;0.50;;;;;;;16.47;73.61;99830.38;5114168;28;20214;-66
2022/06/19 03:51:33;;;;;;;0.50;0.50;;;;;;;16.62;73.12;99824.06;5114118;28;20044;-66
2022/06/19 03:54:07;;;;;;;0.60;0.60;;;;;;;16.73;72.71;99827.22;5114094;28;20497;-66
2022/06/19 03:56:37;;;;;;;0.60;0.60;;;;;;;16.84;72.40;99830.44;5114347;28;20044;-66
2022/06/19 03:59:21;;;;;;;1.20;1.02;;;;;;;16.92;72.09;99833.66;5114339;28;20062;-66
2022/06/19 04:01:59;;;;;;;1.00;0.90;;;;;;;16.95;71.92;99823.28;5114011;28;20069;-66
2022/06/19 04:04:39;;;;;;;0.65;0.65;;;;;;;17.08;71.80;99832.41;5114284;28;20378;-67
2022/06/19 04:07:11;;;;;;;0.65;0.65;;;;;;;17.17;71.65;99834.75;5114592;28;20058;-66
2022/06/19 04:09:43;;;;;;;0.50;0.50;;;;;;;17.19;71.62;99838.16;5118143;28;20074;-67
2022/06/19 04:12:12;;;;;;;0.55;0.55;;;;;;;17.26;71.47;99829.38;5118207;28;20042;-67
2022/06/19 04:14:52;;;;;;;0.95;0.93;;;;;;;17.37;71.47;99827.34;5118160;28;20047;-67
2022/06/19 04:17:21;;;;;;;0.63;0.63;;;;;;;17.47;71.45;99822.78;5117955;28;20074;-67
2022/06/19 04:19:59;;;;;;;0.57;0.57;;;;;;;17.56;71.19;99826.91;5118344;28;20043;-67
2022/06/19 04:22:28;;;;;;;0.60;0.60;;;;;;;17.65;71.08;99821.50;5118034;28;20166;-67
2022/06/19 04:24:56;;;;;;;0.98;0.93;;;;;;;17.77;70.92;99821.16;5117935;28;20043;-67
2022/06/19 04:27:25;;;;;;;2.00;0.88;;;;;;;17.90;70.80;99832.84;5117468;28;20048;-67
2022/06/19 04:30:08;;;;;;;0.70;0.70;;;;;;;18.02;70.58;99832.47;5118137;28;20039;-67
2022/06/19 04:32:46;;;;;;;0.60;0.60;;;;;;;18.08;70.09;99843.50;5117772;28;20096;-68
2022/06/19 04:35:17;;;;;;;0.70;0.70;;;;;;;18.17;70.11;99837.22;5117737;28;20039;-67
2022/06/19 04:37:46;;;;;;;1.13;0.88;;;;;;;18.25;69.96;99835.25;5117930;28;20097;-67
2022/06/19 04:40:15;;;;;;;3.13;2.03;;;;;;;18.38;69.70;99839.16;5117599;28;20093;-67
2022/06/19 04:42:44;;;;;;;12.75;0.82;;;;;;;18.53;69.59;99841.31;5117605;28;20565;-67
2022/06/19 04:45:15;;;;;;;0.97;0.97;;;;;;;18.66;69.30;99842.66;5117848;28;20408;-67
2022/06/19 04:47:44;;;;;;;0.63;0.63;;;;;;;18.73;69.09;99826.06;5117864;28;20565;-67
2022/06/19 04:50:16;;;;;;;0.70;0.70;;;;;;;18.84;69.13;99825.69;5116251;28;20493;-67
2022/06/19 04:52:51;;;;;;;0.55;0.55;;;;;;;18.99;69.13;99834.72;5117494;28;20047;-67
2022/06/19 04:55:21;;;;;;;1.48;0.85;;;;;;;19.11;69.06;99830.00;5117939;28;20386;-67
2022/06/19 04:58:02;;;;;;;0.73;0.70;;;;;;;19.11;68.76;99824.81;5117598;28;20052;-67
2022/06/19 05:00:43;;;;;;;0.70;0.70;;;;;;;19.30;68.37;99837.97;5117295;28;20054;-68
2022/06/19 05:03:12;;;;;;;1.20;1.10;;;;;;;19.39;68.12;99835.09;5117511;27;20447;-67
2022/06/19 05:05:40;;;;;;;0.70;0.60;;;;;;;19.47;67.77;99835.69;5117216;28;20541;-68
2022/06/19 05:08:10;;;;;;;3.50;1.63;;;;;;;19.62;67.55;99832.59;5117127;27;20067;-67
2022/06/19 05:10:39;;;;;;;0.70;0.70;;;;;;;19.77;67.27;99829.44;5116955;28;20797;-69
2022/06/19 05:13:16;;;;;;;0.70;0.70;;;;;;;19.78;66.92;99838.91;5117233;28;20119;-68
2022/06/19 05:15:48;;;;;;;0.70;0.70;;;;;;;19.85;66.70;99839.53;5117556;27;20401;-67
2022/06/19 05:18:18;;;;;;;18.98;1.30;;;;;;;19.99;66.37;99843.31;5116891;28;20047;-67
2022/06/19 05:20:56;;;;;;;1.05;0.80;;;;;;;20.16;65.97;99828.88;5116795;28;20048;-67
2022/06/19 05:23:25;;;;;;;1.85;0.75;;;;;;;20.32;65.73;99827.47;5117168;28;20405;-67
2022/06/19 05:25:59;;;;;;;1.20;1.10;;;;;;;20.26;65.43;99799.16;5117083;28;20040;-67
2022/06/19 05:28:33;;;;;;;0.80;0.77;;;;;;;20.53;65.14;99821.44;5116648;28;20147;-68
2022/06/19 05:31:04;;;;;;;0.75;0.75;;;;;;;20.54;64.77;99816.19;5116576;28;20039;-68
2022/06/19 05:33:39;;;;;;;0.90;0.80;;;;;;;20.64;64.63;99806.28;5117010;28;20088;-67
2022/06/19 05:36:11;;;;;;;0.73;0.73;;;;;;;20.68;64.23;99805.28;5116890;28;20374;-68
2022/06/19 05:38:41;;;;;;;0.80;0.80;;;;;;;20.79;64.08;99808.28;5116376;28;20477;-66
2022/06/19 05:41:09;;;;;;;;;;;;;;;20.90;63.98;99806.09;5116761;28;20047;-67
2022/06/19 05:43:38;;;;;;;0.65;0.63;;;;;;;20.92;63.64;99796.50;5116387;28;19920;-67
2022/06/19 05:46:14;;;;;;;0.95;0.90;;;;;;;21.17;63.47;99807.59;5116365;28;20096;-68
2022/06/19 05:48:44;;;;;;;1.67;1.58;;;;;;;21.26;62.97;99806.34;5116285;28;20050;-67
2022/06/19 05:51:17;;;;;;;;;;;;;;;21.36;62.74;99807.66;5116792;28;20040;-67
2022/06/19 05:53:49;;;;;;;1.48;0.98;;;;;;;21.46;61.96;99818.50;5116206;28;19972;-68
2022/06/19 05:56:18;;;;;;;0.77;0.68;;;;;;;21.56;61.32;99815.44;5116467;28;20112;-67
2022/06/19 05:58:46;;;;;;;0.60;0.60;;;;;;;21.67;61.36;99812.34;5116052;28;20044;-67
2022/06/19 06:01:24;;;;;;;3.13;0.90;;;;;;;21.88;61.06;99817.47;5116024;28;20042;-67
2022/06/19 06:03:56;;;;;;;0.57;0.57;;;;;;;21.98;60.65;99817.91;5116382;28;20130;-68
2022/06/19 06:06:34;;;;;;;1.00;0.93;;;;;;;22.03;60.48;99813.34;5116019;28;20054;-68
2022/06/19 06:09:03;;;;;;;0.77;0.68;;;;;;;22.17;60.64;99808.38;5116264;28;20051;-67
2022/06/19 06:11:33;;;;;;;0.70;0.70;;;;;;;22.42;60.74;99803.72;5115861;28;20032;-67
2022/06/19 06:14:01;;;;;;;0.82;0.80;;;;;;;22.51;60.61;99803.28;5116121;28;20048;-68
2022/06/19 06:16:32;;;;;;;1.02;1.00;;;;;;;22.60;60.26;99802.84;5116005;28;20048;-67
2022/06/19 06:19:05;;;;;;;0.60;0.52;;;;;;;22.79;59.90;99802.00;5115679;28;20084;-67
2022/06/19 06:21:36;;;;;;;0.93;0.93;;;;;;;22.86;59.47;99801.63;5115706;28;20103;-67
2022/06/19 06:24:06;;;;;;;0.63;0.63;;;;;;;22.86;59.12;99809.44;5115843;28;20493;-67
2022/06/19 06:26:34;;;;;;;;;;;;;;;22.91;58.78;99806.63;5115843;28;20142;-68
2022/06/19 06:29:03;;;;;;;0.75;0.75;;;;;;;23.00;58.50;99806.16;5115560;28;20377;-68
2022/06/19 06:31:34;;;;;;;0.70;0.70;;;;;;;23.03;57.91;99800.81;5114812;28;20035;-67
2022/06/19 06:34:03;;;;;;;1.15;1.05;;;;;;;23.20;57.51;99800.81;5115705;28;20396;-67
2022/06/19 06:36:32;;;;;;;0.93;0.88;;;;;;;23.26;57.47;99803.09;5115349;28;20047;-67
2022/06/19 06:39:01;;;;;;;2.70;0.90;;;;;;;23.07;57.57;99802.34;5115316;28;20105;-67
2022/06/19 06:41:30;;;;;;;0.77;0.70;;;;;;;23.23;57.73;99800.63;5115275;28;20040;-67
2022/06/19 06:43:59;;;;;;;0.68;0.68;;;;;;;23.46;57.48;99797.75;5115501;28;20040;-67
2022/06/19 06:46:28;;;;;;;0.45;0.45;;;;;;;23.62;56.89;99801.25;5115120;28;20544;-68
2022/06/19 06:49:02;;;;;;;;;;;;;;;23.71;56.44;99800.75;5115797;28;20052;-67
2022/06/19 06:51:31;;;;;;;0.60;0.60;;;;;;;23.54;55.99;99787.75;5115134;28;20350;-67
2022/06/19 06:54:00;;;;;;;1.33;1.13;;;;;;;23.78;55.59;99796.91;5114786;28;20070;-68
2022/06/19 06:56:32;;;;;;;0.80;0.80;;;;;;;23.93;55.46;99788.28;5114947;28;20043;-67
2022/06/19 06:59:04;;;;;;;0.77;0.77;;;;;;;24.13;54.99;99797.69;5114781;28;20043;-67
2022/06/19 07:01:33;;;;;;;0.60;0.60;;;;;;;24.32;55.38;99792.28;5115181;28;20408;-67
2022/06/19 07:04:03;;;;;;;0.77;0.77;;;;;;;24.48;54.64;99787.88;5114889;28;20486;-67
2022/06/19 07:06:33;;;;;;;0.75;0.70;;;;;;;24.38;53.79;99786.72;5114692;28;20052;-67
2022/06/19 07:09:04;;;;;;;0.50;0.50;;;;;;;24.47;54.18;99786.22;5114830;28;20043;-68
2022/06/19 07:11:36;;;;;;;0.57;0.57;;;;;;;24.50;54.04;99780.81;5114778;27;20122;-67
2022/06/19 07:14:06;;;;;;;0.60;0.60;;;;;;;24.56;54.21;99796.16;5115027;28;20082;-68
2022/06/19 07:16:35;;;;;;;0.52;0.52;;;;;;;24.64;54.28;99793.97;5114528;28;20131;-68
2022/06/19 07:19:06;;;;;;;0.75;0.75;;;;;;;24.60;53.86;99788.06;5114859;28;20054;-67
2022/06/19 07:21:35;;;;;;;0.70;0.70;;;;;;;24.71;54.31;99790.06;5114646;28;20051;-67
2022/06/19 07:24:05;;;;;;;0.60;0.60;;;;;;;24.66;53.89;99784.25;5114359;28;20084;-67
2022/06/19 07:26:34;;;;;;;1.10;1.00;;;;;;;24.68;53.83;99785.00;5114256;28;20046;-68
2022/06/19 07:29:04;;;;;;;0.55;0.55;;;;;;;24.77;53.52;99784.50;5114739;28;20446;-67
2022/06/19 07:31:36;;;;;;;0.70;0.70;;;;;;;24.72;52.31;99776.06;5114627;28;20470;-67
2022/06/19 07:34:07;;;;;;;0.70;0.70;;;;;;;24.90;52.66;99780.28;5114622;28;20109;-68
2022/06/19 07:36:43;;;;;;;1.02;0.70;;;;;;;24.91;51.58;99776.72;5114294;28;20130;-67
2022/06/19 07:39:12;;;;;;;0.60;0.60;;;;;;;24.94;52.08;99779.16;5114758;28;20055;-67
2022/06/19 07:41:41;;;;;;;0.70;0.70;;;;;;;25.00;51.92;99775.38;5107169;28;20040;-69
2022/06/19 07:44:10;;;;;;;0.50;0.50;;;;;;;24.38;51.63;99656.25;5105125;28;20122;-67
2022/06/19 07:50:09;;;;;;;0.68;0.63;;;;;;;25.12;50.57;99770.25;5113974;28;20104;-66
2022/06/19 07:52:08;;;;;;;0.57;0.57;;;;;;;25.34;50.60;99769.00;5115290;27;20127;-68
2022/06/19 07:54:37;;;;;;;0.52;0.52;;;;;;;25.44;49.45;99775.34;5069856;28;20055;-67
2022/06/19 07:57:07;;;;;;;5.47;0.70;;;;;;;25.53;48.86;99769.63;5093173;28;20051;-67
2022/06/19 07:59:36;;;;;;;0.60;0.60;;;;;;;25.46;48.68;99763.88;5113390;28;20058;-66
2022/06/19 08:02:05;;;;;;;1.23;1.13;;;;;;;25.56;48.62;99756.31;5113867;27;20066;-67
2022/06/19 08:04:37;;;;;;;0.95;0.93;;;;;;;25.61;48.76;99756.91;5113854;28;20078;-67
2022/06/19 08:07:12;;;;;;;0.70;0.70;;;;;;;25.75;49.00;99749.03;5113949;28;20109;-68
2022/06/19 08:09:42;;;;;;;0.60;0.60;;;;;;;25.82;48.02;99752.94;5111860;28;20039;-67
2022/06/19 08:12:12;;;;;;;0.70;0.70;;;;;;;25.92;47.87;99748.84;5094336;28;20083;-66
2022/06/19 08:14:41;;;;;;;1.10;0.95;;;;;;;26.04;47.47;99747.22;5093289;28;20127;-66
2022/06/19 08:17:10;;;;;;;0.63;0.63;;;;;;;25.93;47.64;99712.13;5093630;28;20455;-68
2022/06/19 08:19:42;;;;;;;0.77;0.63;;;;;;;26.19;46.17;99747.13;5093567;28;20448;-67
2022/06/19 08:22:11;;;;;;;0.70;0.70;;;;;;;26.21;45.18;99747.88;5093496;28;20048;-65
2022/06/19 08:24:40;;;;;;;0.57;0.57;;;;;;;26.23;45.36;99742.53;5093193;28;20036;-67
2022/06/19 08:27:09;;;;;;;0.60;0.60;;;;;;;26.33;45.91;99738.41;5093259;28;20048;-65
2022/06/19 08:29:38;;;;;;;0.63;0.63;;;;;;;26.42;45.61;99746.50;5092884;28;20044;-66
2022/06/19 08:32:07;;;;;;;1.25;1.15;;;;;;;26.48;45.38;99735.66;5093109;28;20102;-67
2022/06/19 08:34:36;;;;;;;0.57;0.57;;;;;;;26.58;45.06;99739.34;5093267;28;20119;-65
2022/06/19 08:37:10;;;;;;;0.68;0.68;;;;;;;26.54;44.67;99718.66;5093087;28;20040;-66
2022/06/19 08:39:43;;;;;;;0.57;0.52;;;;;;;26.63;44.01;99724.13;5092903;28;20056;-65
2022/06/19 08:42:37;;;;;;;0.50;0.50;;;;;;;26.76;43.95;99723.38;5092735;28;20062;-65
2022/06/19 08:45:22;;;;;;;0.60;0.60;;;;;;;26.79;43.09;99717.94;5092466;28;20105;-66
2022/06/19 08:48:11;;;;;;;0.70;0.70;;;;;;;26.90;43.74;99700.53;5093196;28;20494;-66
2022/06/19 08:50:43;;;;;;;;;;;;;;;26.99;42.89;99709.59;5093431;28;20044;-66
2022/06/19 08:53:37;;;;;;;0.50;0.50;;;;;;;27.12;42.32;99721.75;5093495;28;19973;-64
2022/06/19 08:56:12;;;;;;;0.70;0.70;;;;;;;27.25;43.08;99722.59;5096644;28;20093;-66
2022/06/19 08:58:50;;;;;;;0.50;0.50;;;;;;;27.39;42.99;99724.28;5096327;28;20067;-67
2022/06/19 09:01:26;;;;;;;1.02;0.95;;;;;;;27.59;42.75;99721.13;5096779;28;20050;-65
2022/06/19 09:06:48;;;;;;;0.80;0.80;;;;;;;27.99;42.03;99726.19;5096899;28;20056;-67
2022/06/19 09:09:46;;;;;;;1.10;1.00;;;;;;;28.03;41.43;99719.78;5096646;28;20075;-67
2022/06/19 09:12:31;;;;;;;0.85;0.85;;;;;;;28.19;41.80;99712.50;5096369;28;20131;-67
2022/06/19 09:15:09;;;;;;;0.60;0.60;;;;;;;28.21;41.29;99713.22;5096884;28;20124;-66
2022/06/19 09:17:47;;;;;;;0.70;0.70;;;;;;;28.17;41.52;99723.09;5096476;28;20052;-65
2022/06/19 09:20:27;;;;;;;0.95;0.85;;;;;;;27.88;41.48;99722.53;5095388;28;20032;-67
2022/06/19 09:23:19;;;;;;;0.70;0.70;;;;;;;27.80;42.05;99719.63;5096217;28;20048;-67
2022/06/19 09:25:56;;;;;;;0.52;0.52;;;;;;;27.80;42.03;99708.28;5096240;28;20032;-66
2022/06/19 09:28:32;;;;;;;0.68;0.60;;;;;;;27.85;42.44;99707.03;5096025;28;20078;-66
2022/06/19 09:31:14;;;;;;;0.68;0.68;;;;;;;27.92;42.40;99703.00;5096626;28;20044;-66
2022/06/19 09:33:48;;;;;;;0.73;0.70;;;;;;;27.91;41.79;99685.56;5096161;28;20048;-67
2022/06/19 09:36:24;;;;;;;0.50;0.50;;;;;;;27.93;42.24;99688.91;5096113;28;20047;-66
2022/06/19 09:39:01;;;;;;;1.75;0.80;;;;;;;27.91;42.12;99695.22;5095124;28;20089;-65
2022/06/19 09:41:37;;;;;;;0.93;0.60;;;;;;;27.94;42.53;99700.25;5096361;28;20142;-64
2022/06/19 09:44:19;;;;;;;0.40;0.40;;;;;;;27.97;42.61;99686.09;5094997;28;20127;-65
2022/06/19 09:46:57;;;;;;;0.75;0.68;;;;;;;27.99;42.68;99692.06;5095856;28;20040;-67
2022/06/19 09:49:33;;;;;;;0.68;0.68;;;;;;;28.01;42.50;99683.16;5095977;28;20055;-65
2022/06/19 09:52:07;;;;;;;0.60;0.60;;;;;;;28.18;41.91;99679.31;5095735;28;20554;-66
2022/06/19 09:54:42;;;;;;;0.80;0.80;;;;;;;28.19;41.76;99681.00;5096064;28;20048;-65
2022/06/19 09:57:16;;;;;;;0.80;0.80;;;;;;;28.19;41.44;99668.72;5095709;28;20076;-65
2022/06/19 10:00:00;;;;;;;0.60;0.60;;;;;;;28.10;41.70;99637.06;5095746;28;20478;-65
2022/06/19 10:02:38;;;;;;;0.65;0.60;;;;;;;28.35;41.60;99664.00;5095461;28;20090;-65
2022/06/19 10:05:16;;;;;;;0.68;0.68;;;;;;;28.37;39.16;99666.50;5094852;28;20122;-68
2022/06/19 10:07:53;;;;;;;0.80;0.80;;;;;;;28.55;38.90;99670.41;5095108;28;20044;-67
2022/06/19 10:10:31;;;;;;;0.50;0.50;;;;;;;28.68;38.39;99671.16;5095503;28;20047;-67
2022/06/19 10:13:08;;;;;;;0.63;0.63;;;;;;;28.73;37.99;99663.78;5095563;28;20554;-65
2022/06/19 10:15:38;;;;;;;1.52;1.15;;;;;;;28.73;37.20;99653.28;5095745;28;20044;-66
2022/06/19 10:18:13;;;;;;;0.50;0.50;;;;;;;28.72;37.25;99641.09;5095312;28;20044;-66
2022/06/19 10:20:51;;;;;;;0.60;0.60;;;;;;;28.73;37.18;99641.91;5095534;28;20512;-68
2022/06/19 10:23:30;;;;;;;0.55;0.55;;;;;;;28.87;37.75;99632.03;5095215;28;20127;-65
2022/06/19 10:26:04;;;;;;;;;;;;;;;28.93;36.97;99644.72;5095477;28;20055;-66
2022/06/19 10:28:54;;;;;;;0.68;0.68;;;;;;;28.99;36.68;99630.25;5094726;28;19920;-65
2022/06/19 10:31:34;;;;;;;0.70;0.70;;;;;;;29.06;36.46;99629.66;5095296;28;20540;-66
2022/06/19 10:34:14;;;;;;;0.82;0.80;;;;;;;28.95;36.63;99605.16;5094822;28;20047;-67
2022/06/19 10:36:54;;;;;;;0.60;0.60;;;;;;;29.15;36.45;99634.19;5094996;28;20052;-67
2022/06/19 10:39:34;;;;;;;0.60;0.60;;;;;;;29.06;35.13;99634.06;5094913;28;20562;-65
2022/06/19 10:42:12;;;;;;;0.90;0.90;;;;;;;29.02;34.71;99630.03;5094713;28;20071;-66
2022/06/19 10:45:06;;;;;;;2.05;0.98;;;;;;;29.13;35.40;99625.59;5094724;28;20075;-68
2022/06/19 10:47:54;;;;;;;0.73;0.60;;;;;;;29.14;35.00;99632.53;5094542;28;20142;-66
2022/06/19 10:50:36;;;;;;;0.80;0.80;;;;;;;29.17;35.77;99637.56;5094790;28;20493;-67
2022/06/19 10:53:20;;;;;;;0.45;0.45;;;;;;;29.11;33.68;99631.94;5094607;28;20040;-65
2022/06/19 10:55:55;;;;;;;0.70;0.70;;;;;;;29.03;34.31;99614.13;5094245;28;20044;-65
2022/06/19 10:58:26;;;;;;;0.73;0.73;;;;;;;29.30;35.47;99636.63;5094334;28;20074;-66
2022/06/19 11:00:59;;;;;;;0.50;0.50;;;;;;;29.44;35.20;99639.84;5094188;28;20048;-66
2022/06/19 11:06:19;;;;;;;0.50;0.47;;;;;;;29.53;33.77;99638.28;5094598;28;20036;-67
2022/06/19 11:08:54;;;;;;;0.70;0.70;;;;;;;29.52;33.33;99626.06;5094728;28;20047;-67
2022/06/19 11:11:25;;;;;;;0.65;0.65;;;;;;;29.53;34.54;99618.09;5094368;28;20055;-68
2022/06/19 11:14:02;;;;;;;0.60;0.60;;;;;;;29.59;34.72;99622.00;5094400;28;20106;-67
2022/06/19 11:16:35;;;;;;;1.30;0.82;;;;;;;29.54;34.95;99613.63;5094418;28;20043;-67
2022/06/19 11:19:04;;;;;;;0.80;0.80;;;;;;;29.62;35.27;99612.06;5094194;28;20094;-68
2022/06/19 11:21:35;;;;;;;0.60;0.60;;;;;;;29.51;34.72;99592.84;5094271;28;20050;-68
2022/06/19 11:24:06;;;;;;;0.60;0.60;;;;;;;29.57;35.19;99613.41;5094404;28;20040;-68
2022/06/19 11:26:38;;;;;;;0.60;0.60;;;;;;;29.46;34.55;99573.97;5094181;28;20052;-69
2022/06/19 11:29:18;;;;;;;0.68;0.68;;;;;;;29.67;34.13;99593.28;5093980;28;20055;-68
2022/06/19 11:32:06;;;;;;;0.80;0.70;;;;;;;29.70;35.05;99587.78;5094345;28;20492;-67
2022/06/19 11:37:20;;;;;;;0.70;0.60;;;;;;;29.72;35.06;99570.06;5094575;28;20315;-67
2022/06/19 11:39:53;;;;;;;0.45;0.45;;;;;;;29.83;35.77;99570.03;5093893;28;20122;-68
2022/06/19 11:42:33;;;;;;;0.63;0.63;;;;;;;29.77;36.00;99567.94;5093807;28;20056;-65
2022/06/19 11:45:10;;;;;;;1.60;1.10;;;;;;;29.78;36.45;99551.16;5093861;28;20040;-69
2022/06/19 11:47:43;;;;;;;1.27;0.88;;;;;;;29.86;35.99;99564.53;5093785;28;20044;-67
2022/06/19 11:50:20;;;;;;;0.57;0.57;;;;;;;29.96;36.05;99568.09;5093819;28;20040;-67
2022/06/19 11:52:53;;;;;;;0.50;0.50;;;;;;;29.87;36.47;99563.59;5093622;28;20131;-66
2022/06/19 11:55:27;;;;;;;0.65;0.63;;;;;;;29.95;36.36;99555.88;5093584;28;20079;-68
2022/06/19 11:57:59;;;;;;;0.70;0.70;;;;;;;29.88;36.52;99538.91;5093974;28;20106;-69
2022/06/19 12:00:33;;;;;;;1.65;0.77;;;;;;;29.87;36.81;99558.31;5093395;28;20101;-65
2022/06/19 12:03:06;;;;;;;0.95;0.82;;;;;;;29.93;36.58;99551.69;5093536;28;20054;-67
2022/06/19 12:05:39;;;;;;;0.50;0.50;;;;;;;29.97;36.73;99546.06;5093109;28;20051;-68
2022/06/19 12:08:19;;;;;;;0.70;0.70;;;;;;;29.96;36.43;99536.50;5093873;28;20510;-68
2022/06/19 12:10:54;;;;;;;0.50;0.50;;;;;;;29.89;35.14;99514.28;5093981;28;20082;-67
2022/06/19 12:13:28;;;;;;;0.65;0.65;;;;;;;30.04;35.05;99528.81;5093448;28;20040;-66
2022/06/19 12:16:02;;;;;;;0.50;0.50;;;;;;;30.02;35.14;99525.44;5093870;28;20466;-66